EDW150 LPFR-LSZH
Flight info
| Callsign | EDW150 |
|---|---|
| Flight time | 2h 25m |
| Altitude | 36000 |
| Route | ELVAR DCT BARDI DCT ZMR DCT NEA DCT DGO DCT LPA DCT GOSVI DCT TOPTU DCT TOU DCT GAI DCT MEN DCT NINUN DCT LATAM DCT ETREK/N0458F300 DCT LTP DCT SOPLO DCT OMASI DCT KINNI DCT LAMUR DCT GUDAX Z57 DOPIL |
| Aircraft | A320/M-SDE3FGHIRWY/LB1 |
Departure
| Time | 2026-05-06 14:06 |
|---|---|
| Airport | Faro - Gago Coutinho International Airport (LPFR) |
Arrival
| Time | 2026-05-06 16:31 |
|---|---|
| Airport | Zürich Airport (LSZH) |
| Time | Latitude | Longitude | Altitude | Speed | Heading |
|---|---|---|---|---|---|
| 2026-05-06 13:32 | 37.01915 | -7.96837 | 20 ft | 0 kts | 10° |
| 2026-05-06 13:53 | 37.01911 | -7.96838 | 20 ft | 3 kts | 10° |
| 2026-05-06 13:53 | 37.01885 | -7.96844 | 23 ft | 4 kts | 10° |
| 2026-05-06 13:53 | 37.01860 | -7.96850 | 21 ft | 4 kts | 21° |
| 2026-05-06 13:53 | 37.01840 | -7.96868 | 22 ft | 4 kts | 69° |
| 2026-05-06 13:54 | 37.01838 | -7.96888 | 20 ft | 1 kts | 101° |
| 2026-05-06 13:57 | 37.01835 | -7.96870 | 20 ft | 5 kts | 101° |
| 2026-05-06 13:57 | 37.01827 | -7.96817 | 20 ft | 6 kts | 101° |
| 2026-05-06 13:57 | 37.01818 | -7.96763 | 20 ft | 7 kts | 101° |
| 2026-05-06 13:57 | 37.01810 | -7.96707 | 20 ft | 6 kts | 101° |
| 2026-05-06 13:58 | 37.01803 | -7.96657 | 20 ft | 6 kts | 100° |
| 2026-05-06 13:58 | 37.01796 | -7.96604 | 20 ft | 7 kts | 98° |
| 2026-05-06 13:58 | 37.01782 | -7.96541 | 22 ft | 9 kts | 124° |
| 2026-05-06 13:58 | 37.01720 | -7.96524 | 20 ft | 11 kts | 190° |
| 2026-05-06 13:59 | 37.01639 | -7.96532 | 20 ft | 12 kts | 157° |
| 2026-05-06 13:59 | 37.01606 | -7.96439 | 20 ft | 14 kts | 99° |
| 2026-05-06 13:59 | 37.01590 | -7.96325 | 20 ft | 13 kts | 101° |
| 2026-05-06 13:59 | 37.01574 | -7.96223 | 20 ft | 11 kts | 101° |
| 2026-05-06 14:00 | 37.01561 | -7.96133 | 20 ft | 10 kts | 101° |
| 2026-05-06 14:00 | 37.01553 | -7.96081 | 22 ft | 9 kts | 101° |
| 2026-05-06 14:00 | 37.01543 | -7.96012 | 20 ft | 8 kts | 99° |
| 2026-05-06 14:00 | 37.01535 | -7.95940 | 20 ft | 8 kts | 97° |
| 2026-05-06 14:01 | 37.01513 | -7.95856 | 20 ft | 8 kts | 131° |
| 2026-05-06 14:01 | 37.01463 | -7.95837 | 20 ft | 8 kts | 185° |
| 2026-05-06 14:01 | 37.01442 | -7.95841 | 20 ft | 0 kts | 188° |
| 2026-05-06 14:03 | 37.01440 | -7.95842 | 20 ft | 2 kts | 188° |
| 2026-05-06 14:03 | 37.01410 | -7.95847 | 20 ft | 7 kts | 188° |
| 2026-05-06 14:04 | 37.01358 | -7.95857 | 21 ft | 7 kts | 189° |
| 2026-05-06 14:04 | 37.01349 | -7.95906 | 20 ft | 5 kts | 280° |
| 2026-05-06 14:04 | 37.01349 | -7.95907 | 20 ft | 0 kts | 280° |
| 2026-05-06 14:05 | 37.01350 | -7.95909 | 20 ft | 2 kts | 280° |
| 2026-05-06 14:05 | 37.01379 | -7.96119 | 20 ft | 59 kts | 279° |
| 2026-05-06 14:05 | 37.01490 | -7.96894 | 22 ft | 120 kts | 280° |
| 2026-05-06 14:05 | 37.01668 | -7.98088 | 229 ft | 146 kts | 278° |
| 2026-05-06 14:06 | 37.01860 | -7.99336 | 811 ft | 148 kts | 278° |
| 2026-05-06 14:06 | 37.02048 | -8.00620 | 1416 ft | 152 kts | 282° |
| 2026-05-06 14:06 | 37.02236 | -8.01929 | 2000 ft | 154 kts | 284° |
| 2026-05-06 14:06 | 37.02426 | -8.03257 | 2524 ft | 156 kts | 283° |
| 2026-05-06 14:07 | 37.02619 | -8.04599 | 3027 ft | 157 kts | 283° |
| 2026-05-06 14:07 | 37.02823 | -8.05967 | 3394 ft | 168 kts | 284° |
| 2026-05-06 14:07 | 37.03066 | -8.07488 | 3602 ft | 190 kts | 283° |
| 2026-05-06 14:07 | 37.03332 | -8.09198 | 3846 ft | 210 kts | 283° |
| 2026-05-06 14:08 | 37.03686 | -8.11001 | 4378 ft | 214 kts | 298° |
| 2026-05-06 14:08 | 37.04680 | -8.12300 | 4893 ft | 216 kts | 336° |
| 2026-05-06 14:08 | 37.06178 | -8.12525 | 5421 ft | 222 kts | 6° |
| 2026-05-06 14:08 | 37.07686 | -8.12231 | 6246 ft | 218 kts | 9° |
| 2026-05-06 14:09 | 37.09186 | -8.11866 | 6860 ft | 227 kts | 10° |
| 2026-05-06 14:09 | 37.10825 | -8.11491 | 7112 ft | 251 kts | 9° |
| 2026-05-06 14:09 | 37.12615 | -8.11119 | 7534 ft | 267 kts | 7° |
| 2026-05-06 14:09 | 37.14485 | -8.10758 | 8166 ft | 276 kts | 7° |
| 2026-05-06 14:10 | 37.16410 | -8.10398 | 8861 ft | 283 kts | 7° |
| 2026-05-06 14:10 | 37.18376 | -8.10034 | 9557 ft | 290 kts | 6° |
| 2026-05-06 14:10 | 37.20396 | -8.09657 | 10168 ft | 296 kts | 7° |
| 2026-05-06 14:10 | 37.22451 | -8.09262 | 10829 ft | 301 kts | 7° |
| 2026-05-06 14:11 | 37.24537 | -8.08854 | 11364 ft | 311 kts | 7° |
| 2026-05-06 14:11 | 37.26735 | -8.08425 | 11542 ft | 334 kts | 7° |
| 2026-05-06 14:11 | 37.29107 | -8.07962 | 11716 ft | 356 kts | 8° |
| 2026-05-06 14:11 | 37.31598 | -8.07469 | 12195 ft | 366 kts | 8° |
| 2026-05-06 14:12 | 37.34131 | -8.06967 | 12813 ft | 371 kts | 7° |
| 2026-05-06 14:12 | 37.36695 | -8.06456 | 13492 ft | 374 kts | 8° |
| 2026-05-06 14:12 | 37.39279 | -8.05938 | 14065 ft | 379 kts | 7° |
| 2026-05-06 14:12 | 37.41898 | -8.05415 | 14660 ft | 382 kts | 8° |
| 2026-05-06 14:13 | 37.44525 | -8.04895 | 15247 ft | 385 kts | 7° |
| 2026-05-06 14:13 | 37.47188 | -8.04370 | 15819 ft | 388 kts | 7° |
| 2026-05-06 14:13 | 37.49859 | -8.03842 | 16403 ft | 391 kts | 7° |
| 2026-05-06 14:13 | 37.52527 | -8.03315 | 16968 ft | 394 kts | 7° |
| 2026-05-06 14:14 | 37.55246 | -8.02776 | 17534 ft | 397 kts | 7° |
| 2026-05-06 14:14 | 37.57990 | -8.02231 | 18093 ft | 401 kts | 7° |
| 2026-05-06 14:14 | 37.60761 | -8.01719 | 18594 ft | 404 kts | 5° |
| 2026-05-06 14:14 | 37.63570 | -8.01352 | 19095 ft | 406 kts | 2° |
| 2026-05-06 14:15 | 37.66400 | -8.01095 | 19580 ft | 409 kts | 1° |
| 2026-05-06 14:15 | 37.69253 | -8.00889 | 20080 ft | 412 kts | 0° |
| 2026-05-06 14:15 | 37.72125 | -8.00680 | 20571 ft | 415 kts | 2° |
| 2026-05-06 14:15 | 37.74967 | -7.99906 | 21021 ft | 423 kts | 19° |
| 2026-05-06 14:16 | 37.77554 | -7.98096 | 21456 ft | 430 kts | 37° |
| 2026-05-06 14:16 | 37.79703 | -7.95438 | 21883 ft | 435 kts | 46° |
| 2026-05-06 14:16 | 37.81764 | -7.92610 | 22312 ft | 438 kts | 46° |
| 2026-05-06 14:16 | 37.83801 | -7.89786 | 22723 ft | 441 kts | 47° |
| 2026-05-06 14:17 | 37.85874 | -7.86905 | 23129 ft | 444 kts | 46° |
| 2026-05-06 14:17 | 37.87962 | -7.84010 | 23501 ft | 447 kts | 46° |
| 2026-05-06 14:17 | 37.90069 | -7.81094 | 23854 ft | 450 kts | 46° |
| 2026-05-06 14:17 | 37.92195 | -7.78156 | 24191 ft | 452 kts | 46° |
| 2026-05-06 14:18 | 37.94325 | -7.75211 | 24545 ft | 454 kts | 46° |
| 2026-05-06 14:18 | 37.96461 | -7.72255 | 24897 ft | 455 kts | 46° |
| 2026-05-06 14:18 | 37.98603 | -7.69284 | 25229 ft | 457 kts | 46° |
| 2026-05-06 14:18 | 38.00725 | -7.66338 | 25546 ft | 459 kts | 46° |
| 2026-05-06 14:19 | 38.02889 | -7.63333 | 25866 ft | 461 kts | 46° |
| 2026-05-06 14:19 | 38.05060 | -7.60323 | 26169 ft | 463 kts | 46° |
| 2026-05-06 14:19 | 38.07244 | -7.57296 | 26432 ft | 466 kts | 46° |
| 2026-05-06 14:19 | 38.09439 | -7.54250 | 26712 ft | 469 kts | 46° |
| 2026-05-06 14:20 | 38.11643 | -7.51185 | 26992 ft | 471 kts | 46° |
| 2026-05-06 14:20 | 38.13855 | -7.48106 | 27275 ft | 473 kts | 46° |
| 2026-05-06 14:20 | 38.16076 | -7.45012 | 27553 ft | 475 kts | 46° |
| 2026-05-06 14:20 | 38.18302 | -7.41902 | 27822 ft | 477 kts | 46° |
| 2026-05-06 14:21 | 38.20531 | -7.38780 | 28166 ft | 476 kts | 46° |
| 2026-05-06 14:21 | 38.22755 | -7.35662 | 28551 ft | 476 kts | 46° |
| 2026-05-06 14:21 | 38.24976 | -7.32547 | 28919 ft | 475 kts | 46° |
| 2026-05-06 14:21 | 38.27189 | -7.29441 | 29308 ft | 474 kts | 46° |
| 2026-05-06 14:22 | 38.29407 | -7.26325 | 29671 ft | 474 kts | 46° |
| 2026-05-06 14:22 | 38.31588 | -7.23258 | 30030 ft | 473 kts | 46° |
| 2026-05-06 14:22 | 38.33798 | -7.20154 | 30328 ft | 473 kts | 46° |
| 2026-05-06 14:22 | 38.36011 | -7.17045 | 30595 ft | 474 kts | 46° |
| 2026-05-06 14:23 | 38.38226 | -7.13923 | 30896 ft | 474 kts | 46° |
| 2026-05-06 14:23 | 38.40434 | -7.10811 | 31216 ft | 473 kts | 46° |
| 2026-05-06 14:23 | 38.42640 | -7.07703 | 31526 ft | 472 kts | 46° |
| 2026-05-06 14:23 | 38.44854 | -7.04585 | 31869 ft | 471 kts | 46° |
| 2026-05-06 14:24 | 38.47030 | -7.01517 | 32239 ft | 470 kts | 46° |
| 2026-05-06 14:24 | 38.49210 | -6.98432 | 32580 ft | 468 kts | 46° |
| 2026-05-06 14:24 | 38.51383 | -6.95348 | 32888 ft | 468 kts | 46° |
| 2026-05-06 14:24 | 38.53556 | -6.92258 | 33202 ft | 467 kts | 46° |
| 2026-05-06 14:25 | 38.55735 | -6.89158 | 33510 ft | 467 kts | 46° |
| 2026-05-06 14:25 | 38.57902 | -6.86074 | 33826 ft | 466 kts | 46° |
| 2026-05-06 14:25 | 38.60062 | -6.82999 | 34069 ft | 466 kts | 46° |
| 2026-05-06 14:25 | 38.62239 | -6.79899 | 34222 ft | 468 kts | 46° |
| 2026-05-06 14:26 | 38.64417 | -6.76794 | 34398 ft | 469 kts | 46° |
| 2026-05-06 14:26 | 38.66598 | -6.73682 | 34595 ft | 470 kts | 46° |
| 2026-05-06 14:26 | 38.68780 | -6.70569 | 34807 ft | 470 kts | 46° |
| 2026-05-06 14:26 | 38.70963 | -6.67454 | 35040 ft | 470 kts | 46° |
| 2026-05-06 14:27 | 38.73143 | -6.64340 | 35260 ft | 469 kts | 46° |
| 2026-05-06 14:27 | 38.75316 | -6.61232 | 35466 ft | 469 kts | 46° |
| 2026-05-06 14:27 | 38.77491 | -6.58113 | 35643 ft | 469 kts | 46° |
| 2026-05-06 14:27 | 38.79642 | -6.55026 | 35814 ft | 469 kts | 46° |
| 2026-05-06 14:28 | 38.83993 | -6.48766 | 35924 ft | 470 kts | 46° |
| 2026-05-06 14:28 | 38.88350 | -6.42485 | 35923 ft | 471 kts | 46° |
| 2026-05-06 14:29 | 38.92709 | -6.36200 | 35920 ft | 472 kts | 46° |
| 2026-05-06 14:29 | 38.97060 | -6.29912 | 35917 ft | 471 kts | 46° |
| 2026-05-06 14:30 | 39.01415 | -6.23597 | 35920 ft | 471 kts | 46° |
| 2026-05-06 14:30 | 39.05752 | -6.17297 | 35923 ft | 471 kts | 46° |
| 2026-05-06 14:31 | 39.10093 | -6.10976 | 35920 ft | 471 kts | 46° |
| 2026-05-06 14:31 | 39.14431 | -6.04652 | 35918 ft | 473 kts | 47° |
| 2026-05-06 14:32 | 39.18752 | -5.98340 | 35917 ft | 473 kts | 47° |
| 2026-05-06 14:32 | 39.23127 | -5.91947 | 35915 ft | 471 kts | 47° |
| 2026-05-06 14:33 | 39.27453 | -5.85604 | 35917 ft | 471 kts | 47° |
| 2026-05-06 14:33 | 39.31765 | -5.79272 | 35917 ft | 471 kts | 47° |
| 2026-05-06 14:34 | 39.36093 | -5.72903 | 35920 ft | 471 kts | 47° |
| 2026-05-06 14:34 | 39.40402 | -5.66537 | 35920 ft | 472 kts | 47° |
| 2026-05-06 14:35 | 39.44726 | -5.60136 | 35936 ft | 472 kts | 47° |
| 2026-05-06 14:35 | 39.49014 | -5.53788 | 35920 ft | 471 kts | 47° |
| 2026-05-06 14:36 | 39.53320 | -5.47400 | 35920 ft | 471 kts | 47° |
| 2026-05-06 14:36 | 39.57607 | -5.41002 | 35919 ft | 470 kts | 47° |
| 2026-05-06 14:37 | 39.61904 | -5.34591 | 35918 ft | 471 kts | 47° |
| 2026-05-06 14:37 | 39.66208 | -5.28171 | 35923 ft | 472 kts | 47° |
| 2026-05-06 14:38 | 39.70496 | -5.21756 | 35925 ft | 472 kts | 47° |
| 2026-05-06 14:38 | 39.74786 | -5.15325 | 35923 ft | 471 kts | 47° |
| 2026-05-06 14:39 | 39.79070 | -5.08891 | 35921 ft | 470 kts | 47° |
| 2026-05-06 14:39 | 39.83345 | -5.02446 | 35930 ft | 470 kts | 47° |
| 2026-05-06 14:40 | 39.87617 | -4.95994 | 35930 ft | 470 kts | 47° |
| 2026-05-06 14:40 | 39.91894 | -4.89523 | 35932 ft | 472 kts | 47° |
| 2026-05-06 14:41 | 39.96173 | -4.83048 | 35936 ft | 470 kts | 47° |
| 2026-05-06 14:41 | 40.00431 | -4.76578 | 35929 ft | 470 kts | 47° |
| 2026-05-06 14:42 | 40.04677 | -4.70108 | 35935 ft | 470 kts | 47° |
| 2026-05-06 14:42 | 40.08895 | -4.63665 | 35931 ft | 470 kts | 47° |
| 2026-05-06 14:43 | 40.13142 | -4.57176 | 35934 ft | 470 kts | 47° |
| 2026-05-06 14:43 | 40.17393 | -4.50667 | 35950 ft | 471 kts | 47° |
| 2026-05-06 14:44 | 40.21635 | -4.44156 | 35934 ft | 470 kts | 47° |
| 2026-05-06 14:45 | 40.27988 | -4.34382 | 35934 ft | 470 kts | 47° |
| 2026-05-06 14:45 | 40.32222 | -4.27860 | 35941 ft | 470 kts | 47° |
| 2026-05-06 14:46 | 40.36452 | -4.21319 | 35948 ft | 470 kts | 48° |
| 2026-05-06 14:46 | 40.40663 | -4.14774 | 35970 ft | 469 kts | 48° |
| 2026-05-06 14:47 | 40.44842 | -4.08282 | 35950 ft | 467 kts | 48° |
| 2026-05-06 14:47 | 40.49036 | -4.01761 | 35955 ft | 467 kts | 48° |
| 2026-05-06 14:48 | 40.53234 | -3.95217 | 35965 ft | 467 kts | 48° |
| 2026-05-06 14:48 | 40.57393 | -3.88712 | 35970 ft | 467 kts | 48° |
| 2026-05-06 14:49 | 40.61580 | -3.82147 | 35977 ft | 467 kts | 48° |
| 2026-05-06 14:49 | 40.65760 | -3.75592 | 35975 ft | 468 kts | 48° |
| 2026-05-06 14:50 | 40.69943 | -3.69027 | 35953 ft | 468 kts | 48° |
| 2026-05-06 14:50 | 40.74128 | -3.62435 | 35951 ft | 468 kts | 48° |
| 2026-05-06 14:51 | 40.78295 | -3.55854 | 35955 ft | 468 kts | 48° |
| 2026-05-06 14:51 | 40.82443 | -3.49273 | 35953 ft | 468 kts | 48° |
| 2026-05-06 14:52 | 40.86617 | -3.42641 | 35956 ft | 468 kts | 48° |
| 2026-05-06 14:52 | 40.90795 | -3.36014 | 35950 ft | 469 kts | 48° |
| 2026-05-06 14:53 | 40.94948 | -3.29397 | 35950 ft | 469 kts | 48° |
| 2026-05-06 14:53 | 40.99124 | -3.22712 | 35956 ft | 469 kts | 48° |
| 2026-05-06 14:54 | 41.03261 | -3.16093 | 35949 ft | 469 kts | 48° |
| 2026-05-06 14:54 | 41.07431 | -3.09422 | 35953 ft | 469 kts | 48° |
| 2026-05-06 14:55 | 41.11563 | -3.02782 | 35945 ft | 469 kts | 48° |
| 2026-05-06 14:55 | 41.15707 | -2.96094 | 35957 ft | 469 kts | 48° |
| 2026-05-06 14:56 | 41.19874 | -2.89372 | 35956 ft | 469 kts | 48° |
| 2026-05-06 14:56 | 41.24019 | -2.82671 | 35954 ft | 469 kts | 48° |
| 2026-05-06 14:57 | 41.28133 | -2.76001 | 35957 ft | 469 kts | 48° |
| 2026-05-06 14:57 | 41.32282 | -2.69256 | 35981 ft | 469 kts | 48° |
| 2026-05-06 14:58 | 41.36393 | -2.62555 | 35960 ft | 469 kts | 48° |
| 2026-05-06 14:58 | 41.40523 | -2.55822 | 35958 ft | 469 kts | 48° |
| 2026-05-06 14:59 | 41.44648 | -2.49088 | 35956 ft | 469 kts | 49° |
| 2026-05-06 14:59 | 41.48755 | -2.42354 | 35969 ft | 469 kts | 49° |
| 2026-05-06 15:00 | 41.52886 | -2.35554 | 35960 ft | 470 kts | 49° |
| 2026-05-06 15:00 | 41.56980 | -2.28810 | 35953 ft | 468 kts | 49° |
| 2026-05-06 15:01 | 41.61095 | -2.22032 | 35959 ft | 470 kts | 49° |
| 2026-05-06 15:01 | 41.65175 | -2.15271 | 35958 ft | 470 kts | 49° |
| 2026-05-06 15:02 | 41.68585 | -2.09600 | 35975 ft | 470 kts | 49° |
| 2026-05-06 15:02 | 41.72692 | -2.02769 | 35978 ft | 470 kts | 49° |
| 2026-05-06 15:03 | 41.76760 | -1.95995 | 36005 ft | 469 kts | 49° |
| 2026-05-06 15:03 | 41.80866 | -1.89149 | 35971 ft | 469 kts | 49° |
| 2026-05-06 15:04 | 41.84939 | -1.82348 | 35984 ft | 469 kts | 49° |
| 2026-05-06 15:04 | 41.89030 | -1.75501 | 35987 ft | 470 kts | 49° |
| 2026-05-06 15:05 | 41.93097 | -1.68670 | 35998 ft | 470 kts | 49° |
| 2026-05-06 15:05 | 41.97171 | -1.61790 | 35976 ft | 470 kts | 49° |
| 2026-05-06 15:06 | 42.01236 | -1.54931 | 35981 ft | 469 kts | 49° |
| 2026-05-06 15:06 | 42.05315 | -1.48040 | 35985 ft | 470 kts | 49° |
| 2026-05-06 15:07 | 42.09379 | -1.41147 | 35981 ft | 471 kts | 49° |
| 2026-05-06 15:07 | 42.13427 | -1.34251 | 35983 ft | 471 kts | 49° |
| 2026-05-06 15:08 | 42.17492 | -1.27304 | 35987 ft | 471 kts | 49° |
| 2026-05-06 15:08 | 42.21513 | -1.20425 | 35979 ft | 470 kts | 49° |
| 2026-05-06 15:09 | 42.25578 | -1.13473 | 35977 ft | 470 kts | 49° |
| 2026-05-06 15:09 | 42.29632 | -1.06542 | 35977 ft | 472 kts | 49° |
| 2026-05-06 15:10 | 42.33681 | -0.99594 | 35976 ft | 472 kts | 49° |
| 2026-05-06 15:10 | 42.37746 | -0.92593 | 35981 ft | 472 kts | 49° |
| 2026-05-06 15:11 | 42.41799 | -0.85600 | 35974 ft | 472 kts | 49° |
| 2026-05-06 15:11 | 42.45827 | -0.78626 | 35977 ft | 472 kts | 50° |
| 2026-05-06 15:12 | 42.49849 | -0.71640 | 35966 ft | 473 kts | 50° |
| 2026-05-06 15:12 | 42.53913 | -0.64578 | 35978 ft | 474 kts | 50° |
| 2026-05-06 15:13 | 42.57945 | -0.57547 | 35973 ft | 474 kts | 50° |
| 2026-05-06 15:13 | 42.61998 | -0.50456 | 35995 ft | 473 kts | 50° |
| 2026-05-06 15:14 | 42.66004 | -0.43443 | 35971 ft | 472 kts | 50° |
| 2026-05-06 15:14 | 42.70021 | -0.36393 | 35982 ft | 471 kts | 50° |
| 2026-05-06 15:15 | 42.74022 | -0.29348 | 35981 ft | 472 kts | 50° |
| 2026-05-06 15:15 | 42.78017 | -0.22278 | 35991 ft | 472 kts | 50° |
| 2026-05-06 15:16 | 42.82051 | -0.15235 | 35992 ft | 471 kts | 49° |
| 2026-05-06 15:16 | 42.86230 | -0.08340 | 36005 ft | 470 kts | 47° |
| 2026-05-06 15:17 | 42.90410 | -0.01519 | 35998 ft | 471 kts | 48° |
| 2026-05-06 15:17 | 42.94574 | 0.05377 | 35995 ft | 474 kts | 49° |
| 2026-05-06 15:18 | 42.98751 | 0.12401 | 35997 ft | 474 kts | 49° |
| 2026-05-06 15:18 | 43.02885 | 0.19376 | 36018 ft | 473 kts | 49° |
| 2026-05-06 15:19 | 43.07018 | 0.26333 | 36001 ft | 471 kts | 49° |
| 2026-05-06 15:19 | 43.11146 | 0.33268 | 35998 ft | 470 kts | 49° |
| 2026-05-06 15:20 | 43.15288 | 0.40255 | 35998 ft | 472 kts | 49° |
| 2026-05-06 15:20 | 43.19399 | 0.47244 | 35991 ft | 474 kts | 49° |
| 2026-05-06 15:21 | 43.23538 | 0.54306 | 36006 ft | 474 kts | 49° |
| 2026-05-06 15:21 | 43.27643 | 0.61295 | 35980 ft | 472 kts | 49° |
| 2026-05-06 15:22 | 43.31764 | 0.68289 | 35988 ft | 471 kts | 49° |
| 2026-05-06 15:22 | 43.35903 | 0.75341 | 35984 ft | 471 kts | 49° |
| 2026-05-06 15:23 | 43.40006 | 0.82362 | 35975 ft | 475 kts | 49° |
| 2026-05-06 15:23 | 43.44141 | 0.89473 | 35975 ft | 474 kts | 50° |
| 2026-05-06 15:24 | 43.48221 | 0.96504 | 35975 ft | 471 kts | 50° |
| 2026-05-06 15:24 | 43.52306 | 1.03552 | 35963 ft | 471 kts | 50° |
| 2026-05-06 15:25 | 43.56384 | 1.10610 | 35963 ft | 471 kts | 50° |
| 2026-05-06 15:25 | 43.60456 | 1.17687 | 35948 ft | 473 kts | 50° |
| 2026-05-06 15:26 | 43.64555 | 1.24797 | 35948 ft | 473 kts | 50° |
| 2026-05-06 15:26 | 43.68653 | 1.31938 | 35948 ft | 472 kts | 51° |
| 2026-05-06 15:27 | 43.72592 | 1.39173 | 35948 ft | 472 kts | 52° |
| 2026-05-06 15:27 | 43.76429 | 1.46495 | 35949 ft | 472 kts | 53° |
| 2026-05-06 15:28 | 43.80296 | 1.53866 | 35944 ft | 473 kts | 52° |
| 2026-05-06 15:28 | 43.84208 | 1.61229 | 35947 ft | 474 kts | 52° |
| 2026-05-06 15:29 | 43.88104 | 1.68553 | 35951 ft | 473 kts | 52° |
| 2026-05-06 15:29 | 43.91990 | 1.75885 | 35949 ft | 473 kts | 52° |
| 2026-05-06 15:30 | 43.95871 | 1.83265 | 35946 ft | 473 kts | 53° |
| 2026-05-06 15:30 | 43.99635 | 1.90708 | 35945 ft | 473 kts | 54° |
| 2026-05-06 15:31 | 44.03367 | 1.98288 | 35940 ft | 474 kts | 55° |
| 2026-05-06 15:31 | 44.07077 | 2.05816 | 35945 ft | 473 kts | 54° |
| 2026-05-06 15:32 | 44.12663 | 2.17095 | 35957 ft | 473 kts | 54° |
| 2026-05-06 15:32 | 44.16371 | 2.24602 | 35945 ft | 472 kts | 54° |
| 2026-05-06 15:33 | 44.20118 | 2.32193 | 35951 ft | 474 kts | 54° |
| 2026-05-06 15:33 | 44.23817 | 2.39729 | 35949 ft | 473 kts | 55° |
| 2026-05-06 15:34 | 44.27545 | 2.47338 | 35946 ft | 473 kts | 55° |
| 2026-05-06 15:34 | 44.31247 | 2.54913 | 35946 ft | 473 kts | 55° |
| 2026-05-06 15:35 | 44.34924 | 2.62452 | 35946 ft | 473 kts | 55° |
| 2026-05-06 15:35 | 44.38626 | 2.70066 | 35941 ft | 474 kts | 55° |
| 2026-05-06 15:36 | 44.42328 | 2.77713 | 35946 ft | 473 kts | 55° |
| 2026-05-06 15:36 | 44.46007 | 2.85333 | 35939 ft | 473 kts | 56° |
| 2026-05-06 15:37 | 44.49679 | 2.92963 | 35938 ft | 473 kts | 56° |
| 2026-05-06 15:37 | 44.53365 | 3.00609 | 35933 ft | 473 kts | 55° |
| 2026-05-06 15:38 | 44.57035 | 3.08244 | 35929 ft | 474 kts | 56° |
| 2026-05-06 15:38 | 44.60711 | 3.15953 | 35935 ft | 474 kts | 57° |
| 2026-05-06 15:39 | 44.64110 | 3.23838 | 35919 ft | 473 kts | 60° |
| 2026-05-06 15:39 | 44.67263 | 3.31961 | 35925 ft | 474 kts | 62° |
| 2026-05-06 15:40 | 44.70389 | 3.40061 | 35910 ft | 473 kts | 61° |
| 2026-05-06 15:40 | 44.73605 | 3.48166 | 35910 ft | 473 kts | 60° |
| 2026-05-06 15:41 | 44.76827 | 3.56212 | 35915 ft | 473 kts | 60° |
| 2026-05-06 15:41 | 44.80044 | 3.64268 | 35895 ft | 474 kts | 61° |
| 2026-05-06 15:42 | 44.83264 | 3.72430 | 35912 ft | 473 kts | 61° |
| 2026-05-06 15:42 | 44.86443 | 3.80498 | 35901 ft | 473 kts | 61° |
| 2026-05-06 15:43 | 44.89649 | 3.88645 | 35909 ft | 476 kts | 61° |
| 2026-05-06 15:43 | 44.92866 | 3.96855 | 35919 ft | 476 kts | 61° |
| 2026-05-06 15:44 | 44.96042 | 4.04982 | 35902 ft | 475 kts | 61° |
| 2026-05-06 15:44 | 44.99238 | 4.13176 | 35920 ft | 474 kts | 61° |
| 2026-05-06 15:45 | 45.02404 | 4.21323 | 35900 ft | 475 kts | 61° |
| 2026-05-06 15:45 | 45.05578 | 4.29520 | 35913 ft | 477 kts | 62° |
| 2026-05-06 15:46 | 45.08754 | 4.37748 | 35913 ft | 478 kts | 62° |
| 2026-05-06 15:46 | 45.11949 | 4.46036 | 35910 ft | 476 kts | 62° |
| 2026-05-06 15:47 | 45.15108 | 4.54258 | 35920 ft | 475 kts | 62° |
| 2026-05-06 15:47 | 45.18248 | 4.62486 | 35895 ft | 475 kts | 62° |
| 2026-05-06 15:48 | 45.21394 | 4.70740 | 35918 ft | 476 kts | 62° |
| 2026-05-06 15:48 | 45.24534 | 4.78990 | 35919 ft | 476 kts | 62° |
| 2026-05-06 15:49 | 45.27665 | 4.87228 | 35917 ft | 476 kts | 62° |
| 2026-05-06 15:49 | 45.30793 | 4.95494 | 35927 ft | 474 kts | 62° |
| 2026-05-06 15:50 | 45.33904 | 5.03750 | 35905 ft | 474 kts | 63° |
| 2026-05-06 15:50 | 45.37002 | 5.12000 | 35924 ft | 476 kts | 63° |
| 2026-05-06 15:51 | 45.40127 | 5.20350 | 35919 ft | 476 kts | 63° |
| 2026-05-06 15:51 | 45.43247 | 5.28666 | 35921 ft | 476 kts | 63° |
| 2026-05-06 15:52 | 45.46347 | 5.36975 | 35924 ft | 475 kts | 63° |
| 2026-05-06 15:52 | 45.49911 | 5.44816 | 35923 ft | 474 kts | 48° |
| 2026-05-06 15:53 | 45.54715 | 5.51296 | 35927 ft | 477 kts | 41° |
| 2026-05-06 15:53 | 45.59677 | 5.57626 | 35927 ft | 477 kts | 41° |
| 2026-05-06 15:54 | 45.64609 | 5.63939 | 35927 ft | 477 kts | 41° |
| 2026-05-06 15:54 | 45.69537 | 5.70274 | 35922 ft | 477 kts | 41° |
| 2026-05-06 15:55 | 45.74476 | 5.76623 | 35935 ft | 476 kts | 41° |
| 2026-05-06 15:55 | 45.79405 | 5.82938 | 35939 ft | 476 kts | 41° |
| 2026-05-06 15:56 | 45.84355 | 5.89297 | 35944 ft | 475 kts | 41° |
| 2026-05-06 15:56 | 45.89247 | 5.95620 | 35946 ft | 478 kts | 42° |
| 2026-05-06 15:57 | 45.94211 | 6.02053 | 35945 ft | 479 kts | 42° |
| 2026-05-06 15:57 | 45.99143 | 6.08448 | 35945 ft | 480 kts | 42° |
| 2026-05-06 15:58 | 46.04068 | 6.14871 | 35942 ft | 477 kts | 42° |
| 2026-05-06 15:58 | 46.08871 | 6.21432 | 35922 ft | 476 kts | 50° |
| 2026-05-06 15:59 | 46.12786 | 6.29111 | 35924 ft | 475 kts | 56° |
| 2026-05-06 15:59 | 46.16568 | 6.36873 | 35926 ft | 475 kts | 56° |
| 2026-05-06 16:00 | 46.20394 | 6.44702 | 35929 ft | 478 kts | 56° |
| 2026-05-06 16:00 | 46.24221 | 6.52569 | 35930 ft | 479 kts | 57° |
| 2026-05-06 16:01 | 46.28030 | 6.60463 | 35933 ft | 478 kts | 57° |
| 2026-05-06 16:01 | 46.31197 | 6.67026 | 35931 ft | 479 kts | 57° |
| 2026-05-06 16:02 | 46.35000 | 6.74922 | 35933 ft | 478 kts | 57° |
| 2026-05-06 16:02 | 46.38809 | 6.82842 | 35931 ft | 478 kts | 57° |
| 2026-05-06 16:03 | 46.42612 | 6.90784 | 35935 ft | 481 kts | 57° |
| 2026-05-06 16:03 | 46.46404 | 6.98726 | 35925 ft | 481 kts | 57° |
| 2026-05-06 16:04 | 46.50207 | 7.06715 | 35927 ft | 482 kts | 57° |
| 2026-05-06 16:04 | 46.54008 | 7.14728 | 35928 ft | 481 kts | 57° |
| 2026-05-06 16:05 | 46.57919 | 7.22627 | 35916 ft | 483 kts | 49° |
| 2026-05-06 16:05 | 46.62852 | 7.29251 | 35919 ft | 484 kts | 41° |
| 2026-05-06 16:06 | 46.67953 | 7.35668 | 35908 ft | 485 kts | 41° |
| 2026-05-06 16:06 | 46.73053 | 7.42130 | 35912 ft | 486 kts | 41° |
| 2026-05-06 16:07 | 46.78119 | 7.48650 | 35895 ft | 485 kts | 46° |
| 2026-05-06 16:07 | 46.82386 | 7.56164 | 35922 ft | 484 kts | 53° |
| 2026-05-06 16:08 | 46.86575 | 7.63858 | 35923 ft | 484 kts | 52° |
| 2026-05-06 16:08 | 46.90769 | 7.71565 | 35923 ft | 484 kts | 53° |
| 2026-05-06 16:09 | 46.94945 | 7.79283 | 35925 ft | 482 kts | 53° |
| 2026-05-06 16:09 | 46.99105 | 7.86970 | 35907 ft | 481 kts | 53° |
| 2026-05-06 16:10 | 47.03260 | 7.94665 | 35909 ft | 481 kts | 53° |
| 2026-05-06 16:10 | 47.07480 | 8.02279 | 35917 ft | 482 kts | 46° |
| 2026-05-06 16:11 | 47.12316 | 8.09093 | 35906 ft | 481 kts | 44° |
| 2026-05-06 16:11 | 47.17148 | 8.15878 | 35788 ft | 480 kts | 43° |
| 2026-05-06 16:12 | 47.19784 | 8.18862 | 35213 ft | 478 kts | 28° |
| 2026-05-06 16:12 | 47.22775 | 8.20836 | 34634 ft | 480 kts | 14° |
| 2026-05-06 16:12 | 47.26040 | 8.21676 | 33961 ft | 474 kts | 358° |
| 2026-05-06 16:12 | 47.29296 | 8.21317 | 33217 ft | 467 kts | 343° |
| 2026-05-06 16:13 | 47.32362 | 8.19894 | 32395 ft | 460 kts | 330° |
| 2026-05-06 16:13 | 47.35091 | 8.17515 | 31582 ft | 452 kts | 316° |
| 2026-05-06 16:13 | 47.37535 | 8.14606 | 30741 ft | 454 kts | 317° |
| 2026-05-06 16:13 | 47.40163 | 8.11936 | 29899 ft | 461 kts | 324° |
| 2026-05-06 16:14 | 47.43020 | 8.09738 | 28938 ft | 468 kts | 335° |
| 2026-05-06 16:14 | 47.46216 | 8.08748 | 28073 ft | 475 kts | 356° |
| 2026-05-06 16:14 | 47.49483 | 8.09427 | 27217 ft | 477 kts | 18° |
| 2026-05-06 16:14 | 47.52382 | 8.11737 | 26577 ft | 471 kts | 41° |
| 2026-05-06 16:15 | 47.54490 | 8.15306 | 26128 ft | 455 kts | 62° |
| 2026-05-06 16:15 | 47.55587 | 8.19598 | 25590 ft | 440 kts | 84° |
| 2026-05-06 16:15 | 47.55553 | 8.24038 | 25018 ft | 425 kts | 106° |
| 2026-05-06 16:15 | 47.54570 | 8.28032 | 24419 ft | 415 kts | 121° |
| 2026-05-06 16:16 | 47.52948 | 8.31497 | 23847 ft | 407 kts | 135° |
| 2026-05-06 16:16 | 47.50810 | 8.34168 | 23240 ft | 399 kts | 150° |
| 2026-05-06 16:16 | 47.48305 | 8.35850 | 22533 ft | 394 kts | 166° |
| 2026-05-06 16:16 | 47.45641 | 8.36469 | 21758 ft | 384 kts | 179° |
| 2026-05-06 16:17 | 47.42988 | 8.36597 | 20976 ft | 380 kts | 180° |
| 2026-05-06 16:17 | 47.40365 | 8.36793 | 20215 ft | 376 kts | 173° |
| 2026-05-06 16:17 | 47.37904 | 8.38052 | 19526 ft | 377 kts | 151° |
| 2026-05-06 16:17 | 47.35958 | 8.40642 | 18848 ft | 381 kts | 129° |
| 2026-05-06 16:18 | 47.34863 | 8.44211 | 18118 ft | 386 kts | 105° |
| 2026-05-06 16:18 | 47.34498 | 8.48128 | 17114 ft | 386 kts | 99° |
| 2026-05-06 16:18 | 47.34224 | 8.52059 | 16165 ft | 384 kts | 98° |
| 2026-05-06 16:18 | 47.33972 | 8.55956 | 15282 ft | 380 kts | 98° |
| 2026-05-06 16:19 | 47.33720 | 8.59822 | 14422 ft | 377 kts | 98° |
| 2026-05-06 16:19 | 47.33463 | 8.63656 | 13512 ft | 373 kts | 98° |
| 2026-05-06 16:19 | 47.33205 | 8.67391 | 12591 ft | 367 kts | 98° |
| 2026-05-06 16:19 | 47.32951 | 8.70999 | 12446 ft | 340 kts | 98° |
| 2026-05-06 16:20 | 47.32711 | 8.74346 | 12216 ft | 319 kts | 99° |
| 2026-05-06 16:20 | 47.32475 | 8.77550 | 11712 ft | 311 kts | 99° |
| 2026-05-06 16:20 | 47.32238 | 8.80702 | 11095 ft | 307 kts | 99° |
| 2026-05-06 16:20 | 47.32000 | 8.83822 | 10477 ft | 305 kts | 99° |
| 2026-05-06 16:21 | 47.31766 | 8.86917 | 9884 ft | 303 kts | 99° |
| 2026-05-06 16:21 | 47.31538 | 8.89984 | 9181 ft | 300 kts | 99° |
| 2026-05-06 16:21 | 47.31313 | 8.93019 | 8516 ft | 297 kts | 99° |
| 2026-05-06 16:21 | 47.31094 | 8.96028 | 7858 ft | 294 kts | 97° |
| 2026-05-06 16:22 | 47.31329 | 8.99001 | 7367 ft | 295 kts | 70° |
| 2026-05-06 16:22 | 47.32417 | 9.01551 | 7050 ft | 293 kts | 41° |
| 2026-05-06 16:22 | 47.34096 | 9.03095 | 6996 ft | 289 kts | 15° |
| 2026-05-06 16:22 | 47.36017 | 9.03576 | 6999 ft | 270 kts | 357° |
| 2026-05-06 16:23 | 47.37799 | 9.03301 | 7001 ft | 247 kts | 341° |
| 2026-05-06 16:23 | 47.39344 | 9.02451 | 6997 ft | 227 kts | 327° |
| 2026-05-06 16:23 | 47.40595 | 9.01213 | 7022 ft | 209 kts | 314° |
| 2026-05-06 16:23 | 47.41550 | 8.99752 | 7014 ft | 188 kts | 302° |
| 2026-05-06 16:24 | 47.42234 | 8.98173 | 7004 ft | 179 kts | 291° |
| 2026-05-06 16:24 | 47.42684 | 8.96485 | 7006 ft | 175 kts | 281° |
| 2026-05-06 16:24 | 47.42905 | 8.94730 | 6903 ft | 173 kts | 272° |
| 2026-05-06 16:24 | 47.43037 | 8.92966 | 6706 ft | 172 kts | 272° |
| 2026-05-06 16:25 | 47.43169 | 8.91211 | 6476 ft | 171 kts | 272° |
| 2026-05-06 16:25 | 47.43297 | 8.89489 | 6228 ft | 170 kts | 273° |
| 2026-05-06 16:25 | 47.43428 | 8.87732 | 5985 ft | 170 kts | 273° |
| 2026-05-06 16:25 | 47.43556 | 8.85998 | 5725 ft | 170 kts | 273° |
| 2026-05-06 16:26 | 47.43682 | 8.84285 | 5473 ft | 169 kts | 273° |
| 2026-05-06 16:26 | 47.43810 | 8.82551 | 5222 ft | 170 kts | 274° |
| 2026-05-06 16:26 | 47.43937 | 8.80825 | 4971 ft | 168 kts | 274° |
| 2026-05-06 16:26 | 47.44063 | 8.79110 | 4717 ft | 168 kts | 274° |
| 2026-05-06 16:27 | 47.44188 | 8.77402 | 4480 ft | 168 kts | 274° |
| 2026-05-06 16:27 | 47.44313 | 8.75706 | 4218 ft | 163 kts | 273° |
| 2026-05-06 16:27 | 47.44434 | 8.74044 | 3978 ft | 162 kts | 273° |
| 2026-05-06 16:27 | 47.44553 | 8.72419 | 3757 ft | 152 kts | 272° |
| 2026-05-06 16:28 | 47.44662 | 8.70927 | 3538 ft | 142 kts | 272° |
| 2026-05-06 16:28 | 47.44764 | 8.69511 | 3329 ft | 136 kts | 272° |
| 2026-05-06 16:28 | 47.44865 | 8.68120 | 3128 ft | 136 kts | 272° |
| 2026-05-06 16:28 | 47.44964 | 8.66734 | 2924 ft | 136 kts | 273° |
| 2026-05-06 16:29 | 47.45066 | 8.65378 | 2724 ft | 133 kts | 273° |
| 2026-05-06 16:29 | 47.45160 | 8.64017 | 2533 ft | 134 kts | 272° |
| 2026-05-06 16:29 | 47.45258 | 8.62631 | 2285 ft | 137 kts | 274° |
| 2026-05-06 16:29 | 47.45360 | 8.61208 | 2127 ft | 141 kts | 274° |
| 2026-05-06 16:30 | 47.45463 | 8.59746 | 1867 ft | 143 kts | 274° |
| 2026-05-06 16:30 | 47.45534 | 8.58767 | 1709 ft | 141 kts | 275° |
| 2026-05-06 16:30 | 47.45673 | 8.56874 | 1448 ft | 138 kts | 274° |
| 2026-05-06 16:30 | 47.45759 | 8.55626 | 1404 ft | 89 kts | 275° |
| 2026-05-06 16:31 | 47.45799 | 8.55084 | 1398 ft | 34 kts | 276° |
| 2026-05-06 16:31 | 47.45812 | 8.54877 | 1390 ft | 12 kts | 257° |
| 2026-05-06 16:31 | 47.45731 | 8.54862 | 1397 ft | 16 kts | 158° |
| 2026-05-06 16:31 | 47.45634 | 8.54929 | 1396 ft | 15 kts | 155° |
| 2026-05-06 16:32 | 47.45533 | 8.54999 | 1400 ft | 16 kts | 155° |
| 2026-05-06 16:32 | 47.45451 | 8.55084 | 1396 ft | 12 kts | 133° |
| 2026-05-06 16:32 | 47.45415 | 8.55181 | 1401 ft | 10 kts | 115° |
| 2026-05-06 16:32 | 47.45391 | 8.55253 | 1400 ft | 9 kts | 116° |
| 2026-05-06 16:33 | 47.45368 | 8.55319 | 1405 ft | 6 kts | 117° |
| 2026-05-06 16:33 | 47.45336 | 8.55404 | 1403 ft | 11 kts | 117° |
| 2026-05-06 16:33 | 47.45306 | 8.55482 | 1408 ft | 9 kts | 120° |
| 2026-05-06 16:34 | 47.45267 | 8.55669 | 1407 ft | 13 kts | 98° |
| 2026-05-06 16:34 | 47.45260 | 8.55776 | 1407 ft | 7 kts | 96° |
| 2026-05-06 16:34 | 47.45233 | 8.55814 | 1409 ft | 7 kts | 175° |
| 2026-05-06 16:34 | 47.45187 | 8.55808 | 1408 ft | 7 kts | 185° |
| 2026-05-06 16:35 | 47.45170 | 8.55805 | 1407 ft | 0 kts | 186° |